createdAt,value
2022-10-14T00:01:42.172Z,101170.91
2022-10-14T00:04:08.786Z,101170.97
2022-10-14T00:06:35.319Z,101168.25
2022-10-14T00:09:05.487Z,101161.28
2022-10-14T00:11:32.874Z,101167.44
2022-10-14T00:14:02.209Z,101169.13
2022-10-14T00:16:31.294Z,101163.03
2022-10-14T00:18:58.375Z,101163.91
2022-10-14T00:21:25.256Z,101161.25
2022-10-14T00:23:51.682Z,101156.03
2022-10-14T00:26:29.238Z,101156.88
2022-10-14T00:28:57.167Z,101152.50
2022-10-14T00:31:24.405Z,101145.53
2022-10-14T00:33:50.913Z,101150.75
2022-10-14T00:36:20.121Z,101148.09
2022-10-14T00:38:47.056Z,101150.72
2022-10-14T00:41:19.765Z,101151.59
2022-10-14T00:43:55.704Z,101141.94
2022-10-14T00:46:23.530Z,101146.31
2022-10-14T00:48:50.213Z,101148.09
2022-10-14T00:51:17.306Z,101139.34
2022-10-14T00:53:44.334Z,101136.72
2022-10-14T00:56:11.669Z,101136.75
2022-10-14T00:58:38.686Z,101139.38
2022-10-14T01:01:05.353Z,101141.13
2022-10-14T01:03:33.217Z,101137.63
2022-10-14T01:06:15.246Z,101136.81
2022-10-14T01:08:53.260Z,101148.13
2022-10-14T01:12:09.764Z,101134.16
2022-10-14T01:14:59.887Z,101144.66
2022-10-14T01:17:33.268Z,101149.97
2022-10-14T01:20:40.112Z,101144.69
2022-10-14T01:23:19.046Z,101148.22
2022-10-14T01:26:02.241Z,101141.22
2022-10-14T01:28:51.199Z,101140.31
2022-10-14T01:31:24.317Z,101142.06
2022-10-14T01:33:53.771Z,101132.44
2022-10-14T01:36:33.988Z,101130.69
2022-10-14T01:39:05.936Z,101136.81
2022-10-14T01:41:38.857Z,101138.59
2022-10-14T01:44:10.644Z,101141.22
2022-10-14T01:46:38.990Z,101128.97
2022-10-14T01:49:10.548Z,101135.09
2022-10-14T01:51:41.624Z,101136.84
2022-10-14T01:54:15.425Z,101138.59
2022-10-14T01:56:43.128Z,101135.94
2022-10-14T01:59:10.810Z,101141.22
2022-10-14T02:01:37.408Z,101134.19
2022-10-14T02:04:14.448Z,101135.97
2022-10-14T02:06:43.740Z,101142.09
2022-10-14T02:09:30.812Z,101149.97
2022-10-14T02:12:15.812Z,101138.56
2022-10-14T02:15:11.036Z,101132.44
2022-10-14T02:17:46.173Z,101137.63
2022-10-14T02:20:27.753Z,101130.69
2022-10-14T02:23:21.424Z,101124.56
2022-10-14T02:25:49.411Z,101135.03
2022-10-14T02:28:19.577Z,101130.69
2022-10-14T02:30:52.238Z,101139.44
2022-10-14T02:33:21.073Z,101134.19
2022-10-14T02:35:49.159Z,101130.69
2022-10-14T02:38:16.209Z,101135.09
2022-10-14T02:40:46.000Z,101136.81
2022-10-14T02:43:12.850Z,101139.44
2022-10-14T02:45:40.506Z,101141.19
2022-10-14T02:48:07.581Z,101130.72
2022-10-14T02:50:34.127Z,101130.69
2022-10-14T02:53:00.612Z,101133.34
2022-10-14T02:55:27.089Z,101125.44
2022-10-14T02:57:53.586Z,101129.84
2022-10-14T03:00:20.982Z,101127.22
2022-10-14T03:02:47.437Z,101133.34
2022-10-14T03:05:13.949Z,101127.19
2022-10-14T03:07:40.509Z,101128.94
2022-10-14T03:10:07.189Z,101129.84
2022-10-14T03:12:33.650Z,101121.94
2022-10-14T03:15:00.097Z,101121.06
2022-10-14T03:17:26.774Z,101126.34
2022-10-14T03:19:53.206Z,101119.31
2022-10-14T03:22:20.152Z,101122.84
2022-10-14T03:24:46.828Z,101120.22
2022-10-14T03:27:13.273Z,101120.19
2022-10-14T03:29:40.766Z,101121.97
2022-10-14T03:32:07.235Z,101112.34
2022-10-14T03:34:33.668Z,101121.97
2022-10-14T03:37:00.126Z,101112.31
2022-10-14T03:39:26.588Z,101109.72
2022-10-14T03:41:53.045Z,101108.84
2022-10-14T03:44:19.524Z,101108.81
2022-10-14T03:46:46.044Z,101109.72
2022-10-14T03:49:12.998Z,101114.94
2022-10-14T03:51:39.514Z,101104.44
2022-10-14T03:54:06.311Z,101105.31
2022-10-14T03:56:32.781Z,101107.91
2022-10-14T03:58:59.227Z,101117.59
2022-10-14T04:01:25.809Z,101115.84
2022-10-14T04:03:52.321Z,101104.47
2022-10-14T04:06:18.789Z,101114.91
2022-10-14T04:08:45.261Z,101114.94
2022-10-14T04:11:11.762Z,101115.84
2022-10-14T04:13:38.214Z,101109.69
2022-10-14T04:16:09.094Z,101111.44
2022-10-14T04:18:36.150Z,101108.84
2022-10-14T04:21:05.084Z,101102.69
2022-10-14T04:23:32.106Z,101103.56
2022-10-14T04:25:58.699Z,101108.84
2022-10-14T04:28:25.225Z,101108.81
2022-10-14T04:30:51.718Z,101100.09
2022-10-14T04:33:18.157Z,101100.06
2022-10-14T04:35:44.609Z,101093.06
2022-10-14T04:38:11.088Z,101095.69
2022-10-14T04:40:37.517Z,101097.47
2022-10-14T04:43:04.036Z,101094.81
2022-10-14T04:45:30.490Z,101096.56
2022-10-14T04:47:56.954Z,101094.84
2022-10-14T04:50:23.524Z,101090.47
2022-10-14T04:52:49.982Z,101099.22
2022-10-14T04:55:16.448Z,101086.09
2022-10-14T04:57:43.953Z,101086.94
2022-10-14T05:00:13.792Z,101089.59
2022-10-14T05:02:40.277Z,101096.56
2022-10-14T05:05:07.329Z,101086.94
2022-10-14T05:07:34.532Z,101087.84
2022-10-14T05:10:01.557Z,101086.06
2022-10-14T05:12:28.461Z,101090.44
2022-10-14T05:14:55.123Z,101086.97
2022-10-14T05:17:21.798Z,101087.81
2022-10-14T05:19:48.564Z,101084.31
2022-10-14T05:22:15.221Z,101077.31
2022-10-14T05:24:41.901Z,101082.56
2022-10-14T05:27:08.376Z,101076.47
2022-10-14T05:29:34.821Z,101078.16
2022-10-14T05:32:01.389Z,101072.94
2022-10-14T05:34:27.826Z,101080.81
2022-10-14T05:36:54.316Z,101074.69
2022-10-14T05:39:20.785Z,101073.81
2022-10-14T05:41:47.247Z,101073.81
2022-10-14T05:44:13.673Z,101073.81
2022-10-14T05:46:40.122Z,101076.44
2022-10-14T05:49:06.653Z,101070.31
2022-10-14T05:51:33.497Z,101063.31
2022-10-14T05:54:00.288Z,101069.44
2022-10-14T05:56:26.880Z,101066.84
2022-10-14T05:58:53.429Z,101063.34
2022-10-14T06:01:19.878Z,101054.53
2022-10-14T06:03:50.095Z,101065.94
2022-10-14T06:06:16.833Z,101058.94
2022-10-14T06:08:43.784Z,101051.06
2022-10-14T06:11:10.689Z,101055.44
2022-10-14T06:13:37.601Z,101055.44
2022-10-14T06:16:05.680Z,101058.06
2022-10-14T06:18:33.051Z,101052.81
2022-10-14T06:21:00.091Z,101060.69
2022-10-14T06:23:27.079Z,101061.59
2022-10-14T06:25:53.915Z,101051.94
2022-10-14T06:28:20.470Z,101052.81
2022-10-14T06:30:54.280Z,101053.69
2022-10-14T06:33:21.449Z,101051.97
2022-10-14T06:35:48.308Z,101050.16
2022-10-14T06:38:15.026Z,101059.81
2022-10-14T06:40:41.586Z,101055.41
2022-10-14T06:43:08.053Z,101051.88
2022-10-14T06:45:34.506Z,101056.25
2022-10-14T06:48:00.995Z,101060.69
2022-10-14T06:50:27.415Z,101058.03
2022-10-14T06:52:53.864Z,101061.50
2022-10-14T06:55:20.298Z,101057.16
2022-10-14T06:57:46.778Z,101061.50
2022-10-14T07:00:13.728Z,101062.38
2022-10-14T07:02:40.284Z,101065.91
2022-10-14T07:05:06.906Z,101062.38
2022-10-14T07:07:33.523Z,101056.22
2022-10-14T07:10:00.081Z,101061.56
2022-10-14T07:12:26.736Z,101059.78
2022-10-14T07:14:53.288Z,101062.41
2022-10-14T07:17:20.128Z,101060.63
2022-10-14T07:19:46.915Z,101059.75
2022-10-14T07:22:13.419Z,101063.31
2022-10-14T07:24:39.854Z,101059.75
2022-10-14T07:27:09.190Z,101061.44
2022-10-14T07:29:35.699Z,101057.91
2022-10-14T07:32:02.370Z,101059.66
2022-10-14T07:34:29.010Z,101060.53
2022-10-14T07:36:55.512Z,101062.25
2022-10-14T07:39:21.948Z,101061.31
2022-10-14T07:41:48.523Z,101058.75
2022-10-14T07:44:16.781Z,101048.94
2022-10-14T07:46:44.805Z,101042.72
2022-10-14T07:49:14.897Z,101044.44
2022-10-14T07:51:42.274Z,101053.28
2022-10-14T07:54:13.392Z,101059.47
2022-10-14T07:56:42.943Z,101052.47
2022-10-14T07:59:09.956Z,101061.22
2022-10-14T08:01:37.145Z,101056.91
2022-10-14T08:04:04.077Z,101059.50
2022-10-14T08:06:30.630Z,101058.50
2022-10-14T08:08:57.170Z,101061.22
2022-10-14T08:11:26.156Z,101063.75
2022-10-14T08:13:53.209Z,101069.84
2022-10-14T08:16:27.924Z,101076.03
2022-10-14T08:18:59.479Z,101068.19
2022-10-14T08:21:26.941Z,101064.66
2022-10-14T08:23:54.933Z,101071.78
2022-10-14T08:26:22.669Z,101075.41
2022-10-14T08:28:50.308Z,101062.19
2022-10-14T08:31:17.446Z,101071.78
2022-10-14T08:33:44.044Z,101064.78
2022-10-14T08:36:10.544Z,101065.75
2022-10-14T08:38:37.031Z,101061.28
2022-10-14T08:41:03.437Z,101062.19
2022-10-14T08:43:36.892Z,101067.41
2022-10-14T08:46:16.148Z,101062.09
2022-10-14T08:48:42.966Z,101061.13
2022-10-14T08:51:14.854Z,101056.81
2022-10-14T08:53:46.606Z,101055.09
2022-10-14T08:56:13.936Z,101063.78
2022-10-14T08:58:49.832Z,101051.47
2022-10-14T09:01:26.848Z,101050.75
2022-10-14T09:04:00.167Z,101052.69
2022-10-14T09:06:29.054Z,101053.44
2022-10-14T09:09:06.441Z,101046.38
2022-10-14T09:11:39.340Z,101047.13
2022-10-14T09:14:07.866Z,101042.75
2022-10-14T09:16:36.679Z,101049.81
2022-10-14T09:19:05.813Z,101045.47
2022-10-14T09:24:23.929Z,101033.91
2022-10-14T09:27:23.566Z,101035.66
2022-10-14T09:29:52.873Z,101029.31
2022-10-14T09:32:29.767Z,101037.06
2022-10-14T09:34:57.452Z,101032.66
2022-10-14T09:37:35.242Z,101031.56
2022-10-14T09:40:25.009Z,101026.63
2022-10-14T09:43:09.697Z,101017.69
2022-10-14T09:45:51.446Z,101023.06
2022-10-14T09:48:38.108Z,101031.19
2022-10-14T09:51:10.126Z,101023.38
2022-10-14T09:53:41.135Z,101023.47
2022-10-14T09:56:08.775Z,101029.34
2022-10-14T09:58:53.531Z,101021.94
2022-10-14T10:01:22.112Z,101013.28
2022-10-14T10:03:50.318Z,101017.84
2022-10-14T10:06:19.304Z,101016.06
2022-10-14T10:09:04.045Z,101007.44
2022-10-14T10:11:38.402Z,101012.81
2022-10-14T10:14:23.724Z,101009.34
2022-10-14T10:19:34.859Z,101000.50
2022-10-14T10:25:01.151Z,100993.84
2022-10-14T10:27:55.026Z,100986.59
2022-10-14T10:30:21.432Z,100987.13
2022-10-14T10:33:09.658Z,100991.59
2022-10-14T10:35:54.077Z,100986.75
2022-10-14T10:38:39.978Z,100984.97
2022-10-14T10:41:15.623Z,100982.75
2022-10-14T10:44:00.317Z,100980.25
2022-10-14T10:47:05.783Z,100980.78
2022-10-14T10:49:50.854Z,100974.03
2022-10-14T10:52:35.499Z,100973.41
2022-10-14T10:55:12.674Z,100961.88
2022-10-14T10:57:53.046Z,100955.84
2022-10-14T11:03:30.985Z,100975.66
2022-10-14T11:06:03.432Z,100973.03
2022-10-14T11:09:18.119Z,100975.97
2022-10-14T11:12:15.659Z,100962.69
2022-10-14T11:15:00.535Z,100965.31
2022-10-14T11:18:05.376Z,100963.78
2022-10-14T11:20:40.071Z,100962.59
2022-10-14T11:23:57.088Z,100956.69
2022-10-14T11:26:59.720Z,100960.53
2022-10-14T11:29:35.533Z,100957.06
2022-10-14T11:32:12.259Z,100959.66
2022-10-14T11:35:01.421Z,100953.81
2022-10-14T11:37:46.630Z,100952.44
2022-10-14T11:40:26.170Z,100953.03
2022-10-14T11:43:26.881Z,100949.38
2022-10-14T11:45:57.698Z,100941.53
2022-10-14T11:48:24.161Z,100945.31
2022-10-14T11:50:56.376Z,100945.56
2022-10-14T11:53:52.046Z,100944.22
2022-10-14T11:56:37.249Z,100937.56
2022-10-14T11:59:24.997Z,100938.41
2022-10-14T12:01:55.883Z,100924.06
2022-10-14T12:04:32.043Z,100925.34
2022-10-14T12:07:10.986Z,100929.69
2022-10-14T12:09:50.635Z,100929.09
2022-10-14T12:12:20.284Z,100925.69
2022-10-14T12:14:52.538Z,100931.28
2022-10-14T12:17:23.634Z,100916.84
2022-10-14T12:19:51.302Z,100919.63
2022-10-14T12:22:26.104Z,100926.38
2022-10-14T12:24:58.994Z,100914.47
2022-10-14T12:27:27.256Z,100909.22
2022-10-14T12:30:00.219Z,100912.81
2022-10-14T12:32:28.047Z,100915.00
2022-10-14T12:34:56.303Z,100908.22
2022-10-14T12:37:42.846Z,100902.84
2022-10-14T12:40:12.875Z,100902.69
2022-10-14T12:42:42.478Z,100903.13
2022-10-14T12:45:35.537Z,100893.31
2022-10-14T12:48:08.078Z,100901.75
2022-10-14T12:50:38.433Z,100906.25
2022-10-14T12:53:17.425Z,100908.59
2022-10-14T12:55:53.524Z,100896.19
2022-10-14T12:58:24.250Z,100888.28
2022-10-14T13:01:00.558Z,100898.13
2022-10-14T13:03:32.040Z,100894.84
2022-10-14T13:06:26.432Z,100883.41
2022-10-14T13:09:11.410Z,100873.56
2022-10-14T13:11:58.578Z,100866.94
2022-10-14T13:14:31.144Z,100874.53
2022-10-14T13:17:02.553Z,100873.44
2022-10-14T13:19:35.140Z,100866.34
2022-10-14T13:24:43.537Z,100872.81
2022-10-14T13:27:30.081Z,100868.53
2022-10-14T13:30:15.264Z,100867.84
2022-10-14T13:32:50.426Z,100858.38
2022-10-14T13:35:43.961Z,100860.09
2022-10-14T13:38:15.626Z,100855.34
2022-10-14T13:40:53.756Z,100848.22
2022-10-14T13:43:26.701Z,100849.47
2022-10-14T13:45:58.108Z,100852.13
2022-10-14T13:48:31.880Z,100841.94
2022-10-14T13:51:31.464Z,100843.41
2022-10-14T13:54:09.719Z,100845.16
2022-10-14T13:56:36.149Z,100841.78
2022-10-14T13:59:05.436Z,100843.31
2022-10-14T14:01:39.241Z,100839.44
2022-10-14T14:04:06.048Z,100836.25
2022-10-14T14:06:40.073Z,100839.41
2022-10-14T14:09:22.543Z,100829.72
2022-10-14T14:11:50.543Z,100830.03
2022-10-14T14:14:26.804Z,100826.81
2022-10-14T14:16:58.502Z,100827.66
2022-10-14T14:19:34.242Z,100813.81
2022-10-14T14:22:06.670Z,100810.06
2022-10-14T14:24:34.286Z,100812.34
2022-10-14T14:27:01.388Z,100810.81
2022-10-14T14:29:31.305Z,100810.53
2022-10-14T14:32:07.943Z,100794.91
2022-10-14T14:34:36.437Z,100799.13
2022-10-14T14:37:32.037Z,100794.41
2022-10-14T14:39:57.678Z,100784.56
2022-10-14T14:42:33.063Z,100789.84
2022-10-14T14:45:04.917Z,100786.75
2022-10-14T14:47:31.806Z,100778.13
2022-10-14T14:50:18.299Z,100768.69
2022-10-14T14:52:47.238Z,100767.97
2022-10-14T14:55:33.379Z,100772.56
2022-10-14T14:58:01.021Z,100771.53
2022-10-14T15:00:27.477Z,100776.78
2022-10-14T15:02:59.942Z,100770.84
2022-10-14T15:05:27.021Z,100768.06
2022-10-14T15:07:53.736Z,100769.94
2022-10-14T15:10:27.575Z,100768.88
2022-10-14T15:12:56.334Z,100754.91
2022-10-14T15:15:30.802Z,100748.81
2022-10-14T15:18:12.931Z,100746.16
2022-10-14T15:20:39.987Z,100745.13
2022-10-14T15:23:38.055Z,100753.00
2022-10-14T15:26:20.124Z,100742.56
2022-10-14T15:28:46.639Z,100751.28
2022-10-14T15:31:16.569Z,100743.31
2022-10-14T15:33:43.063Z,100751.19
2022-10-14T15:36:10.753Z,100749.50
2022-10-14T15:38:37.227Z,100745.19
2022-10-14T15:41:05.333Z,100749.53
2022-10-14T15:43:32.759Z,100747.94
2022-10-14T15:46:18.455Z,100747.03
2022-10-14T15:48:52.651Z,100731.97
2022-10-14T15:51:20.332Z,100728.59
2022-10-14T15:53:46.821Z,100720.91
2022-10-14T15:56:13.264Z,100723.53
2022-10-14T15:58:39.722Z,100727.09
2022-10-14T16:01:06.620Z,100717.44
2022-10-14T16:03:37.209Z,100714.00
2022-10-14T16:06:05.422Z,100724.41
2022-10-14T16:08:31.909Z,100715.66
2022-10-14T16:10:59.168Z,100721.56
2022-10-14T16:13:25.740Z,100723.22
2022-10-14T16:15:54.848Z,100721.63
2022-10-14T16:18:23.286Z,100714.31
2022-10-14T16:20:49.807Z,100708.25
2022-10-14T16:23:18.288Z,100712.56
2022-10-14T16:25:46.644Z,100717.97
2022-10-14T16:28:13.425Z,100714.09
2022-10-14T16:30:44.955Z,100704.63
2022-10-14T16:35:49.266Z,100707.19
2022-10-14T16:38:15.746Z,100696.88
2022-10-14T16:40:42.217Z,100686.50
2022-10-14T16:43:09.511Z,100685.41
2022-10-14T16:45:36.266Z,100691.53
2022-10-14T16:48:02.994Z,100689.97
2022-10-14T16:50:29.514Z,100678.69
2022-10-14T16:53:34.406Z,100673.13
2022-10-14T16:56:00.894Z,100685.75
2022-10-14T16:58:28.112Z,100676.22
2022-10-14T17:00:55.132Z,100678.81
2022-10-14T17:03:21.575Z,100684.91
2022-10-14T17:05:48.114Z,100694.31
2022-10-14T17:08:14.631Z,100690.69
2022-10-14T17:10:41.081Z,100683.81
2022-10-14T17:13:08.227Z,100678.53
2022-10-14T17:15:34.690Z,100689.09
2022-10-14T17:18:01.232Z,100673.38
2022-10-14T17:20:28.266Z,100675.22
2022-10-14T17:22:55.166Z,100677.84
2022-10-14T17:25:22.454Z,100677.84
2022-10-14T17:27:49.422Z,100673.53
2022-10-14T17:30:16.985Z,100663.06
2022-10-14T17:32:43.870Z,100667.34
2022-10-14T17:35:14.359Z,100662.53
2022-10-14T17:37:42.482Z,100654.41
2022-10-14T17:40:09.497Z,100659.72
2022-10-14T17:42:35.982Z,100657.41
2022-10-14T17:45:02.877Z,100658.94
2022-10-14T17:47:29.637Z,100654.72
2022-10-14T17:49:56.084Z,100650.22
2022-10-14T17:52:22.548Z,100646.91
2022-10-14T17:54:49.002Z,100639.13
2022-10-14T17:57:15.435Z,100632.00
2022-10-14T17:59:41.878Z,100632.72
2022-10-14T18:02:14.994Z,100627.47
2022-10-14T18:04:41.881Z,100634.53
2022-10-14T18:07:09.048Z,100624.00
2022-10-14T18:09:35.593Z,100617.06
2022-10-14T18:12:10.208Z,100613.50
2022-10-14T18:14:41.048Z,100612.84
2022-10-14T18:17:10.817Z,100606.84
2022-10-14T18:19:37.337Z,100601.81
2022-10-14T18:22:03.960Z,100605.44
2022-10-14T18:24:30.484Z,100593.59
2022-10-14T18:26:57.782Z,100600.03
2022-10-14T18:29:24.612Z,100600.84
2022-10-14T18:34:18.648Z,100603.38
2022-10-14T18:36:45.526Z,100592.94
2022-10-14T18:39:15.545Z,100590.88
2022-10-14T18:41:43.894Z,100591.91
2022-10-14T18:44:10.436Z,100580.19
2022-10-14T18:46:38.349Z,100590.16
2022-10-14T18:49:06.466Z,100589.81
2022-10-14T18:51:35.406Z,100579.63
2022-10-14T18:54:05.334Z,100571.63
2022-10-14T18:56:34.720Z,100574.28
2022-10-14T19:01:36.511Z,100561.72
2022-10-14T19:04:05.583Z,100559.25
2022-10-14T19:06:32.928Z,100564.63
2022-10-14T19:09:02.792Z,100558.41
2022-10-14T19:11:30.369Z,100557.75
2022-10-14T19:13:58.716Z,100549.13
2022-10-14T19:16:27.394Z,100544.50
2022-10-14T19:19:01.730Z,100543.69
2022-10-14T19:21:30.549Z,100548.09
2022-10-14T19:23:59.199Z,100540.00
2022-10-14T19:26:28.670Z,100539.16
2022-10-14T19:28:58.526Z,100537.38
2022-10-14T19:31:29.717Z,100523.59
2022-10-14T19:33:56.949Z,100526.72
2022-10-14T19:36:25.566Z,100513.81
2022-10-14T19:39:00.049Z,100513.97
2022-10-14T19:41:28.529Z,100519.50
2022-10-14T19:43:56.544Z,100511.41
2022-10-14T19:46:26.596Z,100510.78
2022-10-14T19:48:55.693Z,100516.78
2022-10-14T19:51:22.244Z,100504.25
2022-10-14T19:53:49.524Z,100500.03
2022-10-14T19:56:16.006Z,100502.31
2022-10-14T19:58:44.777Z,100496.16
2022-10-14T20:01:16.927Z,100495.44
2022-10-14T20:03:43.622Z,100483.88
2022-10-14T20:06:11.918Z,100487.53
2022-10-14T20:08:38.481Z,100482.03
2022-10-14T20:11:09.847Z,100479.38
2022-10-14T20:13:37.667Z,100477.91
2022-10-14T20:16:05.932Z,100471.94
2022-10-14T20:18:32.670Z,100461.03
2022-10-14T20:21:00.849Z,100458.72
2022-10-14T20:23:27.701Z,100457.16
2022-10-14T20:26:05.974Z,100451.47
2022-10-14T20:28:35.432Z,100442.94
2022-10-14T20:31:02.088Z,100439.25
2022-10-14T20:33:31.894Z,100453.47
2022-10-14T20:36:05.874Z,100449.56
2022-10-14T20:38:32.913Z,100446.28
2022-10-14T20:41:07.584Z,100434.00
2022-10-14T20:43:34.177Z,100440.81
2022-10-14T20:46:00.898Z,100437.06
2022-10-14T20:48:27.376Z,100434.41
2022-10-14T20:50:53.792Z,100429.00
2022-10-14T20:53:20.281Z,100431.41
2022-10-14T20:55:46.742Z,100433.09
2022-10-14T20:58:13.253Z,100426.25
2022-10-14T21:00:39.744Z,100426.38
2022-10-14T21:03:06.213Z,100434.47
2022-10-14T21:05:36.871Z,100429.88
2022-10-14T21:08:04.484Z,100421.31
2022-10-14T21:10:31.006Z,100424.09
2022-10-14T21:12:57.503Z,100419.81
2022-10-14T21:15:26.868Z,100417.84
2022-10-14T21:17:53.930Z,100414.53
2022-10-14T21:20:20.536Z,100418.91
2022-10-14T21:22:47.016Z,100408.88
2022-10-14T21:25:14.227Z,100412.47
2022-10-14T21:27:40.949Z,100415.94
2022-10-14T21:30:08.011Z,100414.97
2022-10-14T21:32:34.469Z,100409.97
2022-10-14T21:35:00.933Z,100402.19
2022-10-14T21:37:27.386Z,100397.94
2022-10-14T21:39:53.937Z,100404.75
2022-10-14T21:42:20.737Z,100394.50
2022-10-14T21:44:47.391Z,100383.94
2022-10-14T21:47:13.898Z,100387.56
2022-10-14T21:49:42.650Z,100382.88
2022-10-14T21:52:09.120Z,100382.78
2022-10-14T21:54:35.570Z,100369.84
2022-10-14T21:57:02.023Z,100377.84
2022-10-14T21:59:28.591Z,100380.16
2022-10-14T22:01:59.005Z,100377.69
2022-10-14T22:04:35.936Z,100364.41
2022-10-14T22:07:06.590Z,100374.03
2022-10-14T22:09:33.054Z,100369.84
2022-10-14T22:11:59.493Z,100360.31
2022-10-14T22:14:25.961Z,100362.13
2022-10-14T22:16:52.413Z,100362.78
2022-10-14T22:19:18.918Z,100353.06
2022-10-14T22:21:46.408Z,100350.28
2022-10-14T22:24:12.987Z,100345.03
2022-10-14T22:26:40.513Z,100347.84
2022-10-14T22:29:10.685Z,100349.47
2022-10-14T22:31:37.961Z,100340.03
2022-10-14T22:34:06.328Z,100335.53
2022-10-14T22:36:33.607Z,100335.34
2022-10-14T22:39:05.845Z,100327.63
2022-10-14T22:41:35.765Z,100336.31
2022-10-14T22:44:04.548Z,100331.91
2022-10-14T22:46:32.946Z,100328.28
2022-10-14T22:49:00.851Z,100327.63
2022-10-14T22:51:36.146Z,100330.31
2022-10-14T22:54:03.164Z,100330.66
2022-10-14T22:56:31.244Z,100329.03
2022-10-14T22:59:05.611Z,100323.91
2022-10-14T23:01:32.297Z,100326.53
2022-10-14T23:03:59.664Z,100326.53
2022-10-14T23:06:26.700Z,100322.31
2022-10-14T23:08:54.372Z,100314.50
2022-10-14T23:11:22.289Z,100313.38
2022-10-14T23:13:49.106Z,100321.28
2022-10-14T23:16:19.048Z,100312.84
2022-10-14T23:18:46.148Z,100315.50
2022-10-14T23:21:16.811Z,100306.94
2022-10-14T23:23:43.828Z,100307.97
2022-10-14T23:26:12.054Z,100307.44
2022-10-14T23:28:39.390Z,100307.19
2022-10-14T23:31:14.171Z,100308.66
2022-10-14T23:33:41.084Z,100308.97
2022-10-14T23:36:10.066Z,100310.84
2022-10-14T23:38:36.933Z,100297.22
2022-10-14T23:41:04.334Z,100309.75
2022-10-14T23:43:31.150Z,100311.59
2022-10-14T23:45:57.844Z,100314.09
2022-10-14T23:48:24.977Z,100310.22
2022-10-14T23:50:51.582Z,100320.16
2022-10-14T23:53:18.531Z,100311.38
2022-10-14T23:55:45.449Z,100314.44
2022-10-14T23:58:12.676Z,100306.47
